Time;durP1;ratioP1;P1;durP2;ratioP2;P2;SDS_P1;SDS_P2;PMS_P1;PMS_P2;Temp;Humidity;BMP_temperature;BMP_pressure;BME280_temperature;BME280_humidity;BME280_pressure;Samples;Min_cycle;Max_cycle;Signal;HPM_P1;HPM_P2
2023/02/08 00:01:15;;;;;;;11.95;8.77;;;0.40;78.80;;;;;;5030449;28;20844;-70
2023/02/08 00:03:41;;;;;;;9.63;8.20;;;0.40;78.30;;;;;;5030817;28;20754;-69
2023/02/08 00:06:08;;;;;;;10.33;8.50;;;0.50;82.20;;;;;;5024819;28;20402;-69
2023/02/08 00:08:34;;;;;;;10.57;8.90;;;0.30;79.50;;;;;;5030592;28;20386;-69
2023/02/08 00:11:00;;;;;;;11.02;8.85;;;0.70;74.70;;;;;;5030597;28;20486;-70
2023/02/08 00:13:26;;;;;;;10.80;8.45;;;0.30;78.30;;;;;;5030676;28;20900;-69
2023/02/08 00:15:53;;;;;;;10.90;8.40;;;0.30;74.20;;;;;;5030148;28;20785;-69
2023/02/08 00:18:19;;;;;;;10.43;8.45;;;0.30;72.30;;;;;;5030472;28;20466;-69
2023/02/08 00:20:45;;;;;;;11.70;8.43;;;0.30;71.10;;;;;;5030330;28;20402;-70
2023/02/08 00:23:12;;;;;;;10.88;8.38;;;0.40;69.30;;;;;;5029779;28;20406;-69
2023/02/08 00:25:39;;;;;;;11.15;7.57;;;0.30;67.60;;;;;;5030066;28;20379;-69
2023/02/08 00:28:05;;;;;;;10.13;8.40;;;0.40;66.20;;;;;;5029974;28;20395;-69
2023/02/08 00:30:31;;;;;;;10.00;7.50;;;0.40;64.50;;;;;;5030332;28;20378;-69
2023/02/08 00:32:56;;;;;;;10.90;8.30;;;0.30;65.70;;;;;;5030155;28;20443;-69
2023/02/08 00:35:22;;;;;;;9.25;7.43;;;0.40;69.40;;;;;;5030096;28;20383;-70
2023/02/08 00:37:48;;;;;;;10.43;7.83;;;0.30;66.30;;;;;;5030028;28;20877;-69
2023/02/08 00:40:13;;;;;;;8.27;7.20;;;0.20;59.90;;;;;;5030153;28;20966;-69
2023/02/08 00:42:39;;;;;;;10.07;7.50;;;0.30;61.30;;;;;;5029557;28;20410;-70
2023/02/08 00:45:04;;;;;;;11.00;8.10;;;0.30;68.10;;;;;;5032434;28;20398;-69
2023/02/08 00:47:30;;;;;;;9.40;7.50;;;0.30;59.40;;;;;;5033650;28;20383;-69
2023/02/08 00:49:55;;;;;;;11.23;7.40;;;0.30;59.80;;;;;;5034021;28;20390;-70
2023/02/08 00:52:21;;;;;;;8.90;7.50;;;0.40;64.30;;;;;;5033922;28;20383;-70
2023/02/08 00:54:47;;;;;;;9.73;7.77;;;0.10;58.00;;;;;;5032702;28;20407;-69
2023/02/08 00:57:13;;;;;;;9.77;8.20;;;0.20;58.40;;;;;;5033928;28;20387;-70
2023/02/08 00:59:38;;;;;;;8.60;7.35;;;0.20;68.10;;;;;;5035181;28;20391;-70
2023/02/08 01:02:04;;;;;;;9.63;7.27;;;0.10;64.90;;;;;;5034395;28;20820;-69
2023/02/08 01:04:29;;;;;;;11.00;8.40;;;0.00;58.70;;;;;;5034038;28;20900;-70
2023/02/08 01:06:55;;;;;;;9.80;8.00;;;0.00;58.00;;;;;;5033229;28;20391;-69
2023/02/08 01:09:20;;;;;;;9.40;7.30;;;0.00;65.50;;;;;;5033332;28;20836;-69
2023/02/08 01:11:46;;;;;;;8.80;7.10;;;0.00;56.90;;;;;;5033659;28;20461;-70
2023/02/08 01:14:11;;;;;;;7.63;6.33;;;-0.10;57.30;;;;;;5033547;28;20386;-70
2023/02/08 01:16:37;;;;;;;9.47;7.10;;;0.00;60.90;;;;;;5033396;28;20425;-69
2023/02/08 01:19:04;;;;;;;9.77;6.50;;;-0.10;59.40;;;;;;5033551;28;20387;-69
2023/02/08 01:21:32;;;;;;;8.43;7.13;;;0.00;53.70;;;;;;5033686;28;20581;-70
2023/02/08 01:23:58;;;;;;;6.80;5.90;;;0.00;56.10;;;;;;5033214;28;20398;-70
2023/02/08 01:26:24;;;;;;;8.90;6.93;;;-0.10;56.10;;;;;;5033168;28;20800;-70
2023/02/08 01:28:51;;;;;;;9.60;6.07;;;0.00;59.40;;;;;;5032924;28;20398;-70
2023/02/08 01:31:22;;;;;;;8.45;6.05;;;-0.20;56.20;;;;;;5033281;28;20423;-70
2023/02/08 01:33:48;;;;;;;7.45;6.00;;;-0.10;51.10;;;;;;5033383;28;20384;-69
2023/02/08 01:36:15;;;;;;;7.73;5.93;;;-0.20;49.90;;;;;;5033185;28;20452;-70
2023/02/08 01:38:41;;;;;;;9.63;5.70;;;-0.20;48.40;;;;;;5033322;28;20496;-70
2023/02/08 01:41:15;;;;;;;7.50;6.30;;;-0.20;51.00;;;;;;5033249;28;20514;-69
2023/02/08 01:44:04;;;;;;;8.20;5.55;;;-0.10;47.00;;;;;;5015550;28;20394;-70
2023/02/08 01:46:35;;;;;;;7.53;5.22;;;-0.10;43.10;;;;;;5032998;28;20432;-70
2023/02/08 01:49:06;;;;;;;7.22;6.00;;;0.00;44.10;;;;;;5033210;28;20482;-70
2023/02/08 01:51:36;;;;;;;7.05;5.63;;;0.00;45.30;;;;;;5033036;28;20568;-70
2023/02/08 01:54:05;;;;;;;6.97;5.45;;;0.10;49.30;;;;;;5033345;28;20448;-69
2023/02/08 01:56:34;;;;;;;6.47;5.22;;;0.40;51.60;;;;;;5032822;28;20379;-70
2023/02/08 01:59:03;;;;;;;6.63;5.70;;;0.00;49.80;;;;;;5032938;28;20387;-69
2023/02/08 02:01:31;;;;;;;6.97;5.50;;;-0.40;46.90;;;;;;5032940;28;20405;-69
2023/02/08 02:04:01;;;;;;;7.18;5.68;;;-0.50;48.60;;;;;;5032516;28;20375;-69
2023/02/08 02:06:32;;;;;;;10.82;6.43;;;-0.50;50.10;;;;;;5023048;28;20389;-70
2023/02/08 02:09:16;;;;;;;7.28;6.28;;;-0.50;53.30;;;;;;5013287;28;20384;-70
2023/02/08 02:11:42;;;;;;;9.45;5.90;;;-0.50;52.50;;;;;;5027234;28;21112;-70
2023/02/08 02:14:09;;;;;;;9.20;6.30;;;-0.70;57.10;;;;;;5033421;28;20448;-69
2023/02/08 02:16:35;;;;;;;7.72;5.65;;;-0.60;58.20;;;;;;5032974;28;20390;-69
2023/02/08 02:19:01;;;;;;;7.40;5.80;;;-0.40;65.40;;;;;;5032979;28;20422;-69
2023/02/08 02:21:26;;;;;;;8.68;5.60;;;-0.70;54.90;;;;;;5032848;28;20431;-70
2023/02/08 02:24:04;;;;;;;6.90;5.87;;;-0.60;55.50;;;;;;5032171;28;20966;-69
2023/02/08 02:27:03;;;;;;;8.88;6.80;;;-0.50;55.10;;;;;;5032268;28;20393;-70
2023/02/08 02:29:38;;;;;;;8.63;6.10;;;-0.60;56.50;;;;;;5014242;28;20769;-69
2023/02/08 02:32:23;;;;;;;8.80;6.10;;;-0.90;66.00;;;;;;5032261;28;20753;-70
2023/02/08 02:35:11;;;;;;;9.02;6.47;;;-0.70;66.70;;;;;;5032343;28;20388;-69
2023/02/08 02:37:53;;;;;;;12.57;7.22;;;-0.90;70.40;;;;;;5025481;28;20404;-69
2023/02/08 02:40:39;;;;;;;8.35;6.97;;;-0.80;73.20;;;;;;5031801;28;20387;-70
2023/02/08 02:46:27;;;;;;;10.98;8.70;;;-0.80;85.80;;;;;;5031733;28;20745;-69
2023/02/08 02:49:08;;;;;;;11.70;9.20;;;-0.70;94.00;;;;;;5020611;28;20410;-69
2023/02/08 02:51:42;;;;;;;11.35;8.88;;;-0.70;97.30;;;;;;5031538;28;20426;-69
2023/02/08 02:54:19;;;;;;;12.38;8.80;;;-0.60;99.90;;;;;;5031779;28;20411;-69
2023/02/08 02:56:48;;;;;;;10.70;8.48;;;-1.00;99.90;;;;;;5031576;28;20375;-69
2023/02/08 02:59:15;;;;;;;12.07;9.18;;;-1.10;99.90;;;;;;5031177;28;20395;-69
2023/02/08 03:01:43;;;;;;;11.05;8.88;;;-0.90;99.90;;;;;;5031527;28;20403;-69
2023/02/08 03:04:31;;;;;;;10.38;9.02;;;-1.20;99.90;;;;;;5031614;28;20508;-69
2023/02/08 03:07:14;;;;;;;11.98;10.10;;;-1.00;99.90;;;;;;5017266;28;20391;-69
2023/02/08 03:10:16;;;;;;;12.63;9.82;;;-1.10;99.90;;;;;;5012024;28;20380;-70
2023/02/08 03:12:57;;;;;;;12.70;10.45;;;-1.10;99.90;;;;;;5089002;22;20966;-68
2023/02/08 03:16:04;;;;;;;13.35;11.13;;;-1.20;99.90;;;;;;5052686;28;20419;-68
2023/02/08 03:18:54;;;;;;;13.43;11.00;;;-1.30;99.90;;;;;;5070799;28;20376;-69
2023/02/08 03:21:44;;;;;;;12.82;11.00;;;-1.30;99.90;;;;;;5078716;28;20453;-68
2023/02/08 03:24:20;;;;;;;17.48;12.85;;;-1.30;99.90;;;;;;5090943;28;20401;-67
2023/02/08 03:27:05;;;;;;;14.23;12.10;;;-1.00;99.90;;;;;;5090230;28;20386;-66
2023/02/08 03:29:55;;;;;;;13.30;10.75;;;-1.30;99.90;;;;;;5072377;28;20437;-66
2023/02/08 03:32:25;;;;;;;12.10;10.57;;;-1.50;99.90;;;;;;5090960;28;20404;-66
2023/02/08 03:35:09;;;;;;;13.05;10.00;;;-1.50;99.90;;;;;;5090795;28;20392;-66
2023/02/08 03:37:45;;;;;;;12.50;10.10;;;-1.60;99.90;;;;;;5090443;28;20388;-66
2023/02/08 03:40:30;;;;;;;10.98;9.20;;;-1.60;99.90;;;;;;5090613;28;20819;-67
2023/02/08 03:43:02;;;;;;;12.77;9.75;;;-1.50;99.90;;;;;;5070371;28;20403;-67
2023/02/08 03:45:36;;;;;;;11.02;9.13;;;-1.50;99.90;;;;;;5070106;28;20383;-66
2023/02/08 03:48:05;;;;;;;12.80;10.20;;;-1.50;99.90;;;;;;5088093;28;20783;-66
2023/02/08 03:50:33;;;;;;;14.88;10.00;;;-1.60;99.90;;;;;;5072334;28;20377;-67
2023/02/08 03:53:00;;;;;;;14.63;10.38;;;-1.80;99.90;;;;;;5072408;28;20725;-67
2023/02/08 03:55:29;;;;;;;13.60;10.05;;;-1.50;99.90;;;;;;5090195;28;20390;-67
2023/02/08 03:58:06;;;;;;;14.32;10.20;;;-1.50;99.90;;;;;;5090472;28;20443;-67
2023/02/08 04:00:37;;;;;;;11.45;9.43;;;-1.70;99.90;;;;;;5089974;28;20427;-67
2023/02/08 04:03:29;;;;;;;13.32;10.10;;;-1.80;99.90;;;;;;5072020;28;20417;-67
2023/02/08 04:05:55;;;;;;;11.95;9.55;;;-1.80;99.90;;;;;;5086063;28;20635;-67
2023/02/08 04:08:21;;;;;;;11.30;9.40;;;-1.80;99.90;;;;;;5090275;28;20409;-67
2023/02/08 04:10:47;;;;;;;11.43;9.70;;;-1.80;99.90;;;;;;5090014;28;20405;-67
2023/02/08 04:13:13;;;;;;;13.80;10.10;;;-1.80;99.90;;;;;;5090387;28;20396;-67
2023/02/08 04:15:38;;;;;;;13.23;9.98;;;-1.90;99.90;;;;;;5071120;28;20891;-67
2023/02/08 04:18:04;;;;;;;13.63;9.83;;;-2.20;99.90;;;;;;5089699;28;20459;-68
2023/02/08 04:20:30;;;;;;;12.38;10.32;;;-2.20;99.90;;;;;;5089439;28;20382;-68
2023/02/08 04:22:55;;;;;;;13.50;9.57;;;-1.90;99.90;;;;;;5072015;28;20402;-67
2023/02/08 04:25:21;;;;;;;13.80;10.57;;;-2.20;99.90;;;;;;5089952;28;20378;-67
2023/02/08 04:27:46;;;;;;;13.43;10.05;;;-2.10;99.90;;;;;;5089992;28;20386;-68
2023/02/08 04:30:12;;;;;;;13.75;10.02;;;-1.80;99.90;;;;;;5071580;28;20385;-68
2023/02/08 04:32:38;;;;;;;12.60;9.50;;;-2.10;99.90;;;;;;5090383;28;20382;-68
2023/02/08 04:35:04;;;;;;;11.75;9.82;;;-2.20;99.90;;;;;;5089980;28;20396;-67
2023/02/08 04:37:30;;;;;;;10.77;9.63;;;-2.10;99.90;;;;;;5090192;28;20630;-67
2023/02/08 04:39:55;;;;;;;10.93;8.70;;;-2.30;99.90;;;;;;5090266;28;20381;-66
2023/02/08 04:42:21;;;;;;;11.10;8.07;;;-2.10;99.90;;;;;;5090098;28;20440;-66
2023/02/08 04:44:47;;;;;;;9.68;8.45;;;-2.20;99.90;;;;;;5090211;28;20381;-67
2023/02/08 04:47:12;;;;;;;13.73;10.02;;;-2.10;99.90;;;;;;5090098;28;20374;-67
2023/02/08 04:49:38;;;;;;;13.70;10.75;;;-2.00;99.90;;;;;;5089865;28;20891;-67
2023/02/08 04:52:04;;;;;;;11.80;10.10;;;-2.10;99.90;;;;;;5089940;28;20820;-67
2023/02/08 04:54:29;;;;;;;12.97;10.50;;;-3.20;99.90;;;;;;5090282;28;20381;-66
2023/02/08 04:56:55;;;;;;;14.60;11.60;;;-1.80;99.90;;;;;;5089685;28;20420;-67
2023/02/08 04:59:21;;;;;;;14.43;11.10;;;-1.60;99.90;;;;;;5090230;28;20385;-67
2023/02/08 05:01:46;;;;;;;15.93;11.38;;;-2.50;99.90;;;;;;5089986;28;20406;-68
2023/02/08 05:04:12;;;;;;;15.40;11.50;;;-2.30;99.90;;;;;;5090495;28;20378;-67
2023/02/08 05:06:37;;;;;;;12.73;11.07;;;-2.50;99.90;;;;;;5090127;28;20789;-68
2023/02/08 05:09:06;;;;;;;13.90;11.37;;;-2.00;99.90;;;;;;5072131;28;20931;-67
2023/02/08 05:11:32;;;;;;;15.50;11.95;;;-2.30;99.90;;;;;;5089424;28;20818;-68
2023/02/08 05:13:57;;;;;;;14.20;11.45;;;-2.50;99.90;;;;;;5090059;28;20394;-67
2023/02/08 05:16:23;;;;;;;13.75;10.40;;;-2.40;99.90;;;;;;5089757;28;20382;-67
2023/02/08 05:18:48;;;;;;;14.20;11.05;;;-2.40;99.90;;;;;;5090011;28;20382;-67
2023/02/08 05:21:14;;;;;;;11.85;10.48;;;-2.40;99.90;;;;;;5089787;28;20416;-66
2023/02/08 05:23:39;;;;;;;15.20;11.73;;;-2.40;99.90;;;;;;5090392;28;20378;-68
2023/02/08 05:26:10;;;;;;;12.93;10.87;;;-2.00;99.90;;;;;;5089749;28;20378;-67
2023/02/08 05:28:36;;;;;;;12.10;9.55;;;-2.30;99.90;;;;;;5089033;28;20911;-68
2023/02/08 05:31:22;;;;;;;14.70;10.60;;;-2.40;99.90;;;;;;5091461;28;20875;-68
2023/02/08 05:33:49;;;;;;;13.45;10.35;;;-2.40;99.90;;;;;;5093444;28;20481;-68
2023/02/08 05:36:16;;;;;;;15.10;10.40;;;-2.40;99.90;;;;;;5092848;28;20582;-67
2023/02/08 05:38:41;;;;;;;13.20;10.32;;;-2.50;99.90;;;;;;5094144;28;20393;-69
2023/02/08 05:41:07;;;;;;;12.73;10.13;;;-2.60;99.90;;;;;;5093659;28;20374;-69
2023/02/08 05:43:32;;;;;;;13.23;10.23;;;-2.60;99.90;;;;;;5075910;28;20420;-68
2023/02/08 05:45:58;;;;;;;13.32;10.45;;;-2.50;99.90;;;;;;5092615;28;20394;-68
2023/02/08 05:48:23;;;;;;;13.15;10.43;;;-2.50;99.90;;;;;;5075218;28;20392;-69
2023/02/08 05:50:49;;;;;;;13.43;9.73;;;-2.50;99.90;;;;;;5075227;28;20378;-67
2023/02/08 05:53:14;;;;;;;12.07;10.50;;;-2.30;99.90;;;;;;5093164;28;20382;-68
2023/02/08 05:55:44;;;;;;;11.95;10.25;;;-2.40;99.90;;;;;;5092829;28;20802;-68
2023/02/08 05:58:10;;;;;;;14.35;10.13;;;-2.10;99.90;;;;;;5093133;28;20406;-68
2023/02/08 06:00:36;;;;;;;13.60;10.20;;;-2.40;99.90;;;;;;5092281;28;20428;-68
2023/02/08 06:03:01;;;;;;;12.48;9.75;;;-2.50;99.90;;;;;;5092997;28;20424;-68
2023/02/08 06:05:27;;;;;;;13.10;9.68;;;-2.70;99.90;;;;;;5092624;28;20388;-68
2023/02/08 06:07:52;;;;;;;12.13;10.75;;;-2.60;99.90;;;;;;5092854;28;20370;-68
2023/02/08 06:10:18;;;;;;;13.68;10.30;;;-2.70;99.90;;;;;;5092712;28;20378;-68
2023/02/08 06:12:44;;;;;;;13.98;10.80;;;-2.60;99.90;;;;;;5092608;28;20405;-69
2023/02/08 06:15:09;;;;;;;13.67;10.30;;;-2.50;99.90;;;;;;5074080;28;20763;-68
2023/02/08 06:17:35;;;;;;;11.37;9.50;;;-2.80;99.90;;;;;;5092324;28;20386;-68
2023/02/08 06:20:00;;;;;;;12.00;9.60;;;-2.30;99.90;;;;;;5092446;28;20398;-68
2023/02/08 06:22:26;;;;;;;14.65;10.27;;;-2.10;99.90;;;;;;5092478;28;20394;-69
2023/02/08 06:24:51;;;;;;;13.77;10.73;;;-2.40;99.90;;;;;;5092500;28;20903;-68
2023/02/08 06:27:17;;;;;;;12.43;10.00;;;-2.50;99.90;;;;;;5092038;28;20405;-68
2023/02/08 06:29:42;;;;;;;13.25;9.90;;;-2.70;99.90;;;;;;5092432;28;20447;-68
2023/02/08 06:32:08;;;;;;;14.15;10.48;;;-2.40;99.90;;;;;;5092220;28;20382;-68
2023/02/08 06:34:33;;;;;;;13.60;10.60;;;-2.50;99.90;;;;;;5092055;28;20393;-68
2023/02/08 06:37:01;;;;;;;12.43;9.90;;;-2.40;99.90;;;;;;5091942;28;20398;-68
2023/02/08 06:39:27;;;;;;;15.25;10.90;;;-2.60;99.90;;;;;;5073341;28;20400;-68
2023/02/08 06:41:52;;;;;;;14.48;10.85;;;-2.50;99.90;;;;;;5090902;28;20433;-68
2023/02/08 06:44:18;;;;;;;12.80;10.57;;;-2.50;99.90;;;;;;5072670;28;20420;-68
2023/02/08 06:46:43;;;;;;;12.17;10.07;;;-2.50;99.90;;;;;;5079009;28;20921;-68
2023/02/08 06:49:10;;;;;;;13.80;11.13;;;-2.50;99.90;;;;;;5092143;28;20453;-67
2023/02/08 06:51:35;;;;;;;13.23;10.13;;;-2.20;99.90;;;;;;5091869;28;20418;-67
2023/02/08 06:54:01;;;;;;;12.02;9.85;;;-2.50;99.90;;;;;;5091981;28;20418;-67
2023/02/08 06:56:26;;;;;;;14.20;10.30;;;-2.40;99.90;;;;;;5091620;28;20386;-69
2023/02/08 06:58:52;;;;;;;14.65;10.98;;;-2.20;99.90;;;;;;5091339;28;20473;-69
2023/02/08 07:01:17;;;;;;;13.73;10.52;;;-2.30;99.90;;;;;;5091575;28;20477;-68
2023/02/08 07:03:43;;;;;;;14.60;12.15;;;-2.40;99.90;;;;;;5087982;28;20399;-68
2023/02/08 07:06:13;;;;;;;17.25;11.27;;;-2.50;99.90;;;;;;5078480;28;20440;-68
2023/02/08 07:08:38;;;;;;;13.85;11.05;;;-2.40;99.90;;;;;;5087829;28;20374;-67
2023/02/08 07:11:09;;;;;;;14.43;11.70;;;-2.10;99.90;;;;;;5075903;28;20445;-68
2023/02/08 07:13:35;;;;;;;14.73;11.82;;;-2.10;99.90;;;;;;5090585;28;20898;-69
2023/02/08 07:16:01;;;;;;;14.93;11.40;;;-2.20;99.90;;;;;;5090968;28;20437;-68
2023/02/08 07:18:27;;;;;;;16.40;12.00;;;-2.40;99.90;;;;;;5083272;28;20397;-68
2023/02/08 07:20:52;;;;;;;16.13;12.13;;;-2.40;99.90;;;;;;5085633;28;20889;-68
2023/02/08 07:23:18;;;;;;;15.00;11.70;;;-2.20;99.90;;;;;;5083667;28;20402;-68
2023/02/08 07:25:44;;;;;;;14.80;12.00;;;-2.10;99.90;;;;;;5081536;28;20388;-67
2023/02/08 07:28:10;;;;;;;14.63;11.80;;;-2.10;99.90;;;;;;5084819;28;20386;-67
2023/02/08 07:30:35;;;;;;;16.07;11.70;;;-2.10;99.90;;;;;;5061120;28;20433;-68
2023/02/08 07:33:01;;;;;;;15.55;12.10;;;-2.20;99.90;;;;;;5085230;28;20390;-68
2023/02/08 07:35:26;;;;;;;13.70;10.55;;;-2.10;99.90;;;;;;5083030;28;20398;-67
2023/02/08 07:37:52;;;;;;;16.73;12.15;;;-2.20;99.90;;;;;;5077164;28;20410;-68
2023/02/08 07:40:18;;;;;;;13.27;10.02;;;-2.20;99.90;;;;;;5087376;28;20417;-67
2023/02/08 07:42:43;;;;;;;16.17;10.93;;;-2.20;99.90;;;;;;5074993;28;20402;-68
2023/02/08 07:45:09;;;;;;;16.37;10.50;;;-2.00;99.90;;;;;;5082543;28;20474;-68
2023/02/08 07:47:34;;;;;;;11.63;9.90;;;-2.10;99.90;;;;;;5082129;28;20405;-67
2023/02/08 07:50:00;;;;;;;13.70;11.20;;;-1.80;99.90;;;;;;5078345;28;20432;-68
2023/02/08 07:52:25;;;;;;;12.77;10.47;;;-1.70;99.90;;;;;;5087944;28;21088;-66
2023/02/08 07:54:51;;;;;;;14.13;11.43;;;-1.90;99.90;;;;;;5073969;28;20401;-66
2023/02/08 07:57:20;;;;;;;14.73;10.17;;;-1.90;99.90;;;;;;5082554;28;20390;-66
2023/02/08 07:59:46;;;;;;;13.50;10.35;;;-1.80;99.90;;;;;;5082544;28;20393;-67
2023/02/08 08:02:13;;;;;;;12.80;10.30;;;-1.90;99.90;;;;;;5089116;28;20402;-68
2023/02/08 08:04:39;;;;;;;12.13;10.00;;;-1.40;99.90;;;;;;5086733;28;20873;-69
2023/02/08 08:07:05;;;;;;;12.57;10.60;;;-1.70;99.90;;;;;;5084953;28;20393;-68
2023/02/08 08:09:30;;;;;;;13.77;10.00;;;-1.70;99.90;;;;;;5088544;28;20385;-68
2023/02/08 08:11:56;;;;;;;14.03;10.17;;;-1.80;99.90;;;;;;5082278;28;20892;-68
2023/02/08 08:14:21;;;;;;;11.63;9.10;;;-1.70;99.90;;;;;;5072801;28;20405;-68
2023/02/08 08:16:47;;;;;;;13.07;10.50;;;-1.70;99.90;;;;;;5080876;28;20417;-67
2023/02/08 08:19:12;;;;;;;14.87;10.60;;;-1.80;99.90;;;;;;5090678;28;20758;-67
2023/02/08 08:21:38;;;;;;;11.90;9.43;;;-1.50;99.90;;;;;;5089862;28;20479;-67
2023/02/08 08:24:03;;;;;;;13.70;10.20;;;-1.60;99.90;;;;;;5090557;28;20378;-67
2023/02/08 08:26:29;;;;;;;12.27;9.90;;;-1.50;99.90;;;;;;5090333;28;20413;-67
2023/02/08 08:28:54;;;;;;;12.77;10.60;;;-1.30;99.90;;;;;;5090477;28;20429;-68
2023/02/08 08:31:21;;;;;;;14.53;12.07;;;-1.40;99.90;;;;;;5089860;28;20381;-68
2023/02/08 08:33:47;;;;;;;13.45;10.60;;;-1.40;99.90;;;;;;5090261;28;20887;-68
2023/02/08 08:36:12;;;;;;;15.25;11.80;;;-1.50;99.90;;;;;;5089898;28;20401;-68
2023/02/08 08:38:39;;;;;;;16.80;13.40;;;-1.60;99.90;;;;;;5090367;28;20923;-68
2023/02/08 08:41:15;;;;;;;15.38;11.93;;;-1.40;99.90;;;;;;5090322;28;20417;-68
2023/02/08 08:43:41;;;;;;;14.67;13.07;;;-1.40;99.90;;;;;;5090551;28;20457;-67
2023/02/08 08:46:08;;;;;;;16.13;12.98;;;-1.40;99.90;;;;;;5090144;28;20457;-67
2023/02/08 08:48:34;;;;;;;17.67;12.52;;;-1.40;99.90;;;;;;5090359;28;20371;-67
2023/02/08 08:51:00;;;;;;;14.52;11.60;;;-1.20;99.90;;;;;;5090071;28;20476;-68
2023/02/08 08:53:26;;;;;;;14.63;12.53;;;-1.20;99.90;;;;;;5090241;28;20449;-67
2023/02/08 08:55:51;;;;;;;14.18;12.68;;;-1.10;99.90;;;;;;5089963;28;20393;-67
2023/02/08 08:58:17;;;;;;;15.60;12.43;;;-1.10;99.90;;;;;;5090430;28;20488;-67
2023/02/08 09:00:43;;;;;;;15.15;11.82;;;-1.30;99.90;;;;;;5090272;28;20863;-67
2023/02/08 09:03:08;;;;;;;15.10;12.45;;;-1.20;99.90;;;;;;5090126;28;20397;-67
2023/02/08 09:05:34;;;;;;;14.25;12.10;;;-1.00;99.90;;;;;;5091509;28;20531;-67
2023/02/08 09:08:00;;;;;;;18.43;12.23;;;-0.90;99.90;;;;;;5094059;28;20382;-67
2023/02/08 09:10:26;;;;;;;16.83;12.30;;;-0.80;99.90;;;;;;5094001;28;20409;-68
2023/02/08 09:12:53;;;;;;;14.88;11.63;;;-0.70;99.90;;;;;;5097056;22;20530;-69
2023/02/08 09:15:19;;;;;;;14.23;11.13;;;-0.80;99.90;;;;;;5073771;28;20447;-69
2023/02/08 09:17:44;;;;;;;13.93;11.50;;;-1.00;99.90;;;;;;5073751;28;20968;-69
2023/02/08 09:20:10;;;;;;;16.83;11.00;;;-0.80;99.90;;;;;;5073966;28;20771;-69
2023/02/08 09:22:35;;;;;;;12.90;11.00;;;-0.60;99.90;;;;;;5073662;28;20399;-69
2023/02/08 09:25:01;;;;;;;22.63;12.00;;;-0.70;99.00;;;;;;5072669;28;20417;-69
2023/02/08 09:27:28;;;;;;;14.13;11.50;;;-1.00;99.10;;;;;;5073174;28;20441;-69
2023/02/08 09:29:53;;;;;;;14.02;10.65;;;-0.90;99.60;;;;;;5073458;28;20402;-69
2023/02/08 09:32:20;;;;;;;13.57;11.25;;;-0.80;99.20;;;;;;5073462;28;20375;-69
2023/02/08 09:34:46;;;;;;;15.82;11.50;;;-0.70;95.40;;;;;;5072160;28;20442;-69
2023/02/08 09:37:11;;;;;;;15.68;11.32;;;-0.50;96.00;;;;;;5072994;28;20387;-69
2023/02/08 09:39:37;;;;;;;13.90;10.93;;;-0.50;94.70;;;;;;5073034;28;20407;-69
2023/02/08 09:42:12;;;;;;;15.20;11.60;;;-0.20;95.10;;;;;;5073041;28;20392;-69
2023/02/08 09:45:05;;;;;;;12.85;11.25;;;-0.40;93.00;;;;;;5073297;28;20396;-69
2023/02/08 09:47:46;;;;;;;15.30;10.50;;;-0.30;92.60;;;;;;5072813;28;20379;-69
2023/02/08 09:50:36;;;;;;;13.80;10.70;;;-0.20;90.50;;;;;;5073163;28;20919;-69
2023/02/08 09:53:05;;;;;;;13.87;11.87;;;-0.10;90.30;;;;;;5071613;28;20464;-69
2023/02/08 09:55:38;;;;;;;13.40;10.50;;;-0.10;86.20;;;;;;5072673;28;20444;-69
2023/02/08 09:58:31;;;;;;;15.37;11.20;;;-0.40;85.40;;;;;;5072309;28;20896;-69
2023/02/08 10:00:56;;;;;;;13.23;11.02;;;-0.20;82.30;;;;;;5072575;28;20396;-69
2023/02/08 10:03:26;;;;;;;13.45;10.90;;;-0.10;86.70;;;;;;5072870;28;20403;-69
2023/02/08 10:05:52;;;;;;;13.32;10.02;;;0.00;87.70;;;;;;5067702;28;20455;-69
2023/02/08 10:08:17;;;;;;;12.20;10.35;;;-0.20;83.50;;;;;;5052562;28;20369;-69
2023/02/08 10:10:53;;;;;;;12.90;10.70;;;0.10;81.70;;;;;;5052753;28;20746;-68
2023/02/08 10:13:49;;;;;;;12.07;10.20;;;0.00;80.20;;;;;;5072385;28;20540;-68
2023/02/08 10:16:33;;;;;;;12.80;10.38;;;0.20;76.40;;;;;;5072366;28;20789;-69
2023/02/08 10:19:36;;;;;;;13.43;10.55;;;0.30;77.20;;;;;;5072535;28;20379;-68
2023/02/08 10:22:21;;;;;;;12.55;10.75;;;0.40;72.80;;;;;;5062576;28;20443;-68
2023/02/08 10:25:18;;;;;;;11.63;9.95;;;0.40;72.50;;;;;;5072354;28;20521;-69
2023/02/08 10:28:15;;;;;;;14.40;10.80;;;0.50;71.60;;;;;;5072237;28;20556;-68
2023/02/08 10:30:48;;;;;;;11.02;9.15;;;0.80;71.80;;;;;;5072050;28;20387;-68
2023/02/08 10:33:23;;;;;;;12.60;9.63;;;0.60;66.60;;;;;;5072206;28;20880;-68
2023/02/08 10:35:50;;;;;;;15.05;10.23;;;0.80;63.50;;;;;;5072086;28;20387;-68
2023/02/08 10:38:24;;;;;;;13.25;9.93;;;0.60;69.80;;;;;;5072327;28;20391;-68
2023/02/08 10:41:00;;;;;;;13.65;10.55;;;0.70;64.70;;;;;;5072247;28;20414;-68
2023/02/08 10:43:34;;;;;;;12.88;9.68;;;0.80;64.50;;;;;;5072457;28;20879;-68
2023/02/08 10:46:26;;;;;;;14.07;11.05;;;0.80;61.60;;;;;;5071739;28;20953;-68
2023/02/08 10:49:29;;;;;;;13.40;10.37;;;0.90;58.40;;;;;;5071963;28;20390;-68
2023/02/08 10:51:55;;;;;;;11.05;9.05;;;1.30;56.10;;;;;;5071850;28;20387;-69
2023/02/08 10:54:20;;;;;;;11.80;9.55;;;1.30;58.10;;;;;;5071789;28;20384;-69
2023/02/08 10:57:03;;;;;;;10.40;9.30;;;1.30;54.80;;;;;;5071388;28;20406;-69
2023/02/08 10:59:41;;;;;;;13.93;8.80;;;1.40;54.50;;;;;;5071878;28;20386;-69
2023/02/08 11:02:25;;;;;;;11.07;8.70;;;1.40;51.60;;;;;;5071659;28;20764;-69
2023/02/08 11:05:09;;;;;;;11.70;8.73;;;1.30;50.90;;;;;;5071788;28;20379;-69
2023/02/08 11:07:35;;;;;;;13.65;9.80;;;1.40;50.70;;;;;;5052419;28;20883;-69
2023/02/08 11:10:19;;;;;;;13.17;8.57;;;1.80;49.90;;;;;;5061224;28;20966;-69
2023/02/08 11:12:58;;;;;;;13.88;9.13;;;1.80;48.70;;;;;;5071386;28;20873;-69
2023/02/08 11:15:28;;;;;;;9.83;8.73;;;2.00;44.30;;;;;;5070741;28;20395;-70
2023/02/08 11:17:58;;;;;;;10.98;8.20;;;2.30;44.00;;;;;;5070990;28;20407;-70
2023/02/08 11:20:30;;;;;;;10.48;8.18;;;2.10;45.20;;;;;;5069851;28;20410;-70
2023/02/08 11:22:57;;;;;;;9.88;7.65;;;2.40;41.20;;;;;;5071284;28;20531;-70
2023/02/08 11:25:36;;;;;;;8.88;7.80;;;2.40;40.20;;;;;;5071007;28;20892;-70
2023/02/08 11:28:03;;;;;;;8.63;7.63;;;2.60;42.00;;;;;;5070408;28;20436;-70
2023/02/08 11:30:28;;;;;;;9.07;7.78;;;2.80;39.00;;;;;;5071109;28;20380;-70
2023/02/08 11:33:21;;;;;;;10.02;7.68;;;2.90;38.20;;;;;;5070777;28;20399;-69
2023/02/08 11:35:57;;;;;;;8.40;7.50;;;4.10;34.50;;;;;;5070477;28;20445;-69
2023/02/08 11:38:27;;;;;;;8.13;7.30;;;4.40;27.20;;;;;;5071072;28;20388;-69
2023/02/08 11:40:55;;;;;;;8.57;7.40;;;5.50;28.60;;;;;;5070909;28;20723;-68
2023/02/08 11:43:33;;;;;;;9.25;7.47;;;5.40;24.70;;;;;;5070962;28;20449;-69
2023/02/08 11:46:01;;;;;;;9.20;7.63;;;5.60;22.90;;;;;;5070329;28;20379;-69
2023/02/08 11:48:33;;;;;;;8.35;7.18;;;5.30;21.70;;;;;;5070810;28;20379;-69
2023/02/08 11:51:01;;;;;;;9.20;7.93;;;5.00;21.70;;;;;;5070485;28;20376;-69
2023/02/08 11:53:38;;;;;;;10.02;7.50;;;4.80;23.40;;;;;;5070682;28;20387;-69
2023/02/08 11:56:26;;;;;;;11.63;7.90;;;5.90;21.90;;;;;;5069118;28;20388;-70
2023/02/08 11:59:17;;;;;;;9.95;8.38;;;6.70;20.50;;;;;;5070623;28;20398;-69
2023/02/08 12:01:43;;;;;;;8.30;7.18;;;5.60;19.80;;;;;;5063408;28;20407;-69
2023/02/08 12:04:12;;;;;;;9.50;8.23;;;5.70;19.30;;;;;;5070362;28;20886;-70
2023/02/08 12:07:14;;;;;;;10.20;7.60;;;6.20;21.70;;;;;;5059172;28;20415;-70
2023/02/08 12:10:04;;;;;;;8.52;7.65;;;6.70;21.10;;;;;;5050420;28;20378;-70
2023/02/08 12:12:55;;;;;;;8.77;7.30;;;7.00;17.60;;;;;;5050366;28;20408;-70
2023/02/08 12:15:26;;;;;;;8.73;7.68;;;7.60;17.00;;;;;;5056229;28;20434;-70
2023/02/08 12:18:15;;;;;;;9.20;7.80;;;7.70;17.70;;;;;;5070769;28;20885;-69
2023/02/08 12:20:45;;;;;;;8.80;7.90;;;7.20;18.30;;;;;;5070518;28;20414;-68
2023/02/08 12:23:44;;;;;;;10.50;9.33;;;8.00;17.00;;;;;;5070323;28;20428;-69
2023/02/08 12:26:18;;;;;;;9.83;8.70;;;7.80;21.50;;;;;;5069942;28;20442;-69
2023/02/08 12:29:09;;;;;;;10.40;8.70;;;7.70;18.50;;;;;;5070235;28;20391;-68
2023/02/08 12:31:54;;;;;;;11.25;8.88;;;8.00;17.10;;;;;;5065424;28;20824;-69
2023/02/08 12:34:43;;;;;;;10.23;9.13;;;7.40;18.90;;;;;;5069011;28;20384;-68
2023/02/08 12:40:52;;;;;;;10.50;8.50;;;7.60;17.80;;;;;;5071566;28;20878;-69
2023/02/08 12:43:49;;;;;;;9.50;8.50;;;6.90;17.70;;;;;;5073980;28;20411;-69
2023/02/08 12:46:37;;;;;;;10.10;9.02;;;6.90;18.90;;;;;;5073857;28;20376;-69
2023/02/08 12:49:46;;;;;;;10.50;9.27;;;7.80;17.70;;;;;;5074079;28;20394;-68
2023/02/08 12:52:34;;;;;;;9.90;8.90;;;6.90;17.00;;;;;;5074152;28;20408;-69
2023/02/08 12:55:02;;;;;;;10.48;9.20;;;6.70;18.10;;;;;;5073784;28;20380;-69
2023/02/08 12:57:30;;;;;;;10.13;8.50;;;8.10;19.40;;;;;;5074097;28;20375;-69
2023/02/08 13:00:06;;;;;;;10.85;9.13;;;8.30;17.10;;;;;;5074156;28;20386;-68
2023/02/08 13:02:48;;;;;;;10.40;8.90;;;8.30;16.80;;;;;;5073508;28;20399;-69
2023/02/08 13:05:21;;;;;;;10.32;9.18;;;7.60;17.20;;;;;;5073493;28;20881;-69